sensor_id;sensor_type;location;lat;lon;timestamp;temperature;humidity
38333;DHT22;25748;46.670;14.272;2024-03-08T00:00:19;3.40;67.70
38333;DHT22;25748;46.670;14.272;2024-03-08T00:02:46;3.40;67.70
38333;DHT22;25748;46.670;14.272;2024-03-08T00:05:12;3.40;67.90
38333;DHT22;25748;46.670;14.272;2024-03-08T00:07:39;3.40;67.80
38333;DHT22;25748;46.670;14.272;2024-03-08T00:10:06;3.40;67.70
38333;DHT22;25748;46.670;14.272;2024-03-08T00:12:40;3.40;67.60
38333;DHT22;25748;46.670;14.272;2024-03-08T00:15:09;3.40;67.60
38333;DHT22;25748;46.670;14.272;2024-03-08T00:17:36;3.40;67.50
38333;DHT22;25748;46.670;14.272;2024-03-08T00:20:02;3.40;67.70
38333;DHT22;25748;46.670;14.272;2024-03-08T00:22:36;3.40;67.80
38333;DHT22;25748;46.670;14.272;2024-03-08T00:25:06;3.40;68.00
38333;DHT22;25748;46.670;14.272;2024-03-08T00:27:35;3.40;68.00
38333;DHT22;25748;46.670;14.272;2024-03-08T00:30:01;3.40;67.90
38333;DHT22;25748;46.670;14.272;2024-03-08T00:32:27;3.40;68.00
38333;DHT22;25748;46.670;14.272;2024-03-08T00:34:57;3.40;67.90
38333;DHT22;25748;46.670;14.272;2024-03-08T00:37:23;3.40;67.80
38333;DHT22;25748;46.670;14.272;2024-03-08T00:39:49;3.40;68.00
38333;DHT22;25748;46.670;14.272;2024-03-08T00:42:16;3.40;68.10
38333;DHT22;25748;46.670;14.272;2024-03-08T00:44:41;3.40;67.90
38333;DHT22;25748;46.670;14.272;2024-03-08T00:47:07;3.40;68.00
38333;DHT22;25748;46.670;14.272;2024-03-08T00:49:33;3.40;67.80
38333;DHT22;25748;46.670;14.272;2024-03-08T00:51:59;3.40;67.90
38333;DHT22;25748;46.670;14.272;2024-03-08T00:54:24;3.40;67.80
38333;DHT22;25748;46.670;14.272;2024-03-08T00:56:50;3.30;68.00
38333;DHT22;25748;46.670;14.272;2024-03-08T00:59:16;3.40;68.10
38333;DHT22;25748;46.670;14.272;2024-03-08T01:01:41;3.40;68.20
38333;DHT22;25748;46.670;14.272;2024-03-08T01:04:07;3.40;68.40
38333;DHT22;25748;46.670;14.272;2024-03-08T01:06:34;3.40;68.30
38333;DHT22;25748;46.670;14.272;2024-03-08T01:08:59;3.40;68.40
38333;DHT22;25748;46.670;14.272;2024-03-08T01:11:25;3.40;68.40
38333;DHT22;25748;46.670;14.272;2024-03-08T01:13:51;3.40;68.30
38333;DHT22;25748;46.670;14.272;2024-03-08T01:16:16;3.40;68.30
38333;DHT22;25748;46.670;14.272;2024-03-08T01:18:43;3.40;68.40
38333;DHT22;25748;46.670;14.272;2024-03-08T01:21:09;3.40;68.30
38333;DHT22;25748;46.670;14.272;2024-03-08T01:23:34;3.40;68.40
38333;DHT22;25748;46.670;14.272;2024-03-08T01:26:00;3.40;68.30
38333;DHT22;25748;46.670;14.272;2024-03-08T01:28:28;3.40;68.40
38333;DHT22;25748;46.670;14.272;2024-03-08T01:30:54;3.30;68.20
38333;DHT22;25748;46.670;14.272;2024-03-08T01:33:26;3.40;68.40
38333;DHT22;25748;46.670;14.272;2024-03-08T01:35:53;3.30;68.20
38333;DHT22;25748;46.670;14.272;2024-03-08T01:38:19;3.40;68.40
38333;DHT22;25748;46.670;14.272;2024-03-08T01:40:47;3.40;68.40
38333;DHT22;25748;46.670;14.272;2024-03-08T01:43:42;3.30;68.30
38333;DHT22;25748;46.670;14.272;2024-03-08T01:46:09;3.40;68.60
38333;DHT22;25748;46.670;14.272;2024-03-08T01:48:34;3.40;68.60
38333;DHT22;25748;46.670;14.272;2024-03-08T01:51:00;3.40;68.50
38333;DHT22;25748;46.670;14.272;2024-03-08T01:53:29;3.40;68.50
38333;DHT22;25748;46.670;14.272;2024-03-08T01:55:57;3.30;68.50
38333;DHT22;25748;46.670;14.272;2024-03-08T01:58:23;3.30;68.40
38333;DHT22;25748;46.670;14.272;2024-03-08T02:00:49;3.30;68.50
38333;DHT22;25748;46.670;14.272;2024-03-08T02:03:16;3.30;68.50
38333;DHT22;25748;46.670;14.272;2024-03-08T02:05:41;3.30;68.60
38333;DHT22;25748;46.670;14.272;2024-03-08T02:08:08;3.30;68.40
38333;DHT22;25748;46.670;14.272;2024-03-08T02:10:38;3.30;68.40
38333;DHT22;25748;46.670;14.272;2024-03-08T02:13:04;3.30;68.40
38333;DHT22;25748;46.670;14.272;2024-03-08T02:15:50;3.20;68.40
38333;DHT22;25748;46.670;14.272;2024-03-08T02:18:15;3.20;68.70
38333;DHT22;25748;46.670;14.272;2024-03-08T02:20:47;3.20;68.50
38333;DHT22;25748;46.670;14.272;2024-03-08T02:23:14;3.20;68.40
38333;DHT22;25748;46.670;14.272;2024-03-08T02:25:40;3.20;68.50
38333;DHT22;25748;46.670;14.272;2024-03-08T02:28:11;3.20;68.40
38333;DHT22;25748;46.670;14.272;2024-03-08T02:30:37;3.20;68.30
38333;DHT22;25748;46.670;14.272;2024-03-08T02:33:02;3.20;68.30
38333;DHT22;25748;46.670;14.272;2024-03-08T02:35:29;3.10;68.30
38333;DHT22;25748;46.670;14.272;2024-03-08T02:37:55;3.10;68.20
38333;DHT22;25748;46.670;14.272;2024-03-08T02:40:21;3.10;68.20
38333;DHT22;25748;46.670;14.272;2024-03-08T02:42:47;3.10;68.30
38333;DHT22;25748;46.670;14.272;2024-03-08T02:45:13;3.10;68.40
38333;DHT22;25748;46.670;14.272;2024-03-08T02:47:39;3.00;68.30
38333;DHT22;25748;46.670;14.272;2024-03-08T02:50:05;3.00;68.60
38333;DHT22;25748;46.670;14.272;2024-03-08T02:52:34;3.00;68.70
38333;DHT22;25748;46.670;14.272;2024-03-08T02:55:01;3.00;68.90
38333;DHT22;25748;46.670;14.272;2024-03-08T02:57:27;3.00;69.00
38333;DHT22;25748;46.670;14.272;2024-03-08T02:59:53;3.00;69.00
38333;DHT22;25748;46.670;14.272;2024-03-08T03:02:19;3.00;69.00
38333;DHT22;25748;46.670;14.272;2024-03-08T03:04:45;3.00;69.00
38333;DHT22;25748;46.670;14.272;2024-03-08T03:07:10;3.00;69.10
38333;DHT22;25748;46.670;14.272;2024-03-08T03:09:36;3.00;69.10
38333;DHT22;25748;46.670;14.272;2024-03-08T03:12:02;3.00;69.20
38333;DHT22;25748;46.670;14.272;2024-03-08T03:14:28;2.90;69.20
38333;DHT22;25748;46.670;14.272;2024-03-08T03:16:54;2.90;69.20
38333;DHT22;25748;46.670;14.272;2024-03-08T03:19:20;3.00;69.40
38333;DHT22;25748;46.670;14.272;2024-03-08T03:21:47;3.00;69.20
38333;DHT22;25748;46.670;14.272;2024-03-08T03:24:12;3.00;69.20
38333;DHT22;25748;46.670;14.272;2024-03-08T03:26:41;3.00;69.30
38333;DHT22;25748;46.670;14.272;2024-03-08T03:29:09;3.00;69.20
38333;DHT22;25748;46.670;14.272;2024-03-08T03:31:36;3.00;69.30
38333;DHT22;25748;46.670;14.272;2024-03-08T03:34:02;2.90;69.10
38333;DHT22;25748;46.670;14.272;2024-03-08T03:36:31;2.90;69.20
38333;DHT22;25748;46.670;14.272;2024-03-08T03:38:57;2.90;69.10
38333;DHT22;25748;46.670;14.272;2024-03-08T03:41:44;2.90;68.90
38333;DHT22;25748;46.670;14.272;2024-03-08T03:44:11;3.00;69.20
38333;DHT22;25748;46.670;14.272;2024-03-08T03:46:37;3.00;69.30
38333;DHT22;25748;46.670;14.272;2024-03-08T03:49:02;3.00;69.20
38333;DHT22;25748;46.670;14.272;2024-03-08T03:51:30;3.00;69.30
38333;DHT22;25748;46.670;14.272;2024-03-08T03:53:56;3.00;69.40
38333;DHT22;25748;46.670;14.272;2024-03-08T03:56:26;3.00;69.30
38333;DHT22;25748;46.670;14.272;2024-03-08T03:58:52;3.00;69.30
38333;DHT22;25748;46.670;14.272;2024-03-08T04:01:18;3.00;69.30
38333;DHT22;25748;46.670;14.272;2024-03-08T04:03:44;3.00;69.20
38333;DHT22;25748;46.670;14.272;2024-03-08T04:06:10;3.00;69.10
38333;DHT22;25748;46.670;14.272;2024-03-08T04:08:36;3.00;69.30
38333;DHT22;25748;46.670;14.272;2024-03-08T04:11:01;3.00;69.30
38333;DHT22;25748;46.670;14.272;2024-03-08T04:13:28;3.00;69.30
38333;DHT22;25748;46.670;14.272;2024-03-08T04:15:53;3.00;69.30
38333;DHT22;25748;46.670;14.272;2024-03-08T04:18:19;3.10;69.20
38333;DHT22;25748;46.670;14.272;2024-03-08T04:20:45;3.00;69.20
38333;DHT22;25748;46.670;14.272;2024-03-08T04:23:11;3.10;69.20
38333;DHT22;25748;46.670;14.272;2024-03-08T04:25:36;3.10;69.40
38333;DHT22;25748;46.670;14.272;2024-03-08T04:28:02;3.10;69.40
38333;DHT22;25748;46.670;14.272;2024-03-08T04:30:27;3.10;69.40
38333;DHT22;25748;46.670;14.272;2024-03-08T04:32:54;3.10;69.40
38333;DHT22;25748;46.670;14.272;2024-03-08T04:35:19;3.10;69.40
38333;DHT22;25748;46.670;14.272;2024-03-08T04:37:45;3.10;69.40
38333;DHT22;25748;46.670;14.272;2024-03-08T04:40:11;3.10;69.40
38333;DHT22;25748;46.670;14.272;2024-03-08T04:42:39;3.10;69.20
38333;DHT22;25748;46.670;14.272;2024-03-08T04:45:06;3.10;69.10
38333;DHT22;25748;46.670;14.272;2024-03-08T04:47:33;3.10;69.00
38333;DHT22;25748;46.670;14.272;2024-03-08T04:49:59;3.00;68.90
38333;DHT22;25748;46.670;14.272;2024-03-08T04:52:25;3.10;69.20
38333;DHT22;25748;46.670;14.272;2024-03-08T04:54:52;3.10;69.30
38333;DHT22;25748;46.670;14.272;2024-03-08T04:57:18;3.10;69.30
38333;DHT22;25748;46.670;14.272;2024-03-08T04:59:43;3.10;69.30
38333;DHT22;25748;46.670;14.272;2024-03-08T05:02:09;3.10;69.30
38333;DHT22;25748;46.670;14.272;2024-03-08T05:04:35;3.10;69.40
38333;DHT22;25748;46.670;14.272;2024-03-08T05:07:01;3.10;69.30
38333;DHT22;25748;46.670;14.272;2024-03-08T05:09:28;3.10;69.30
38333;DHT22;25748;46.670;14.272;2024-03-08T05:11:54;3.10;69.40
38333;DHT22;25748;46.670;14.272;2024-03-08T05:14:20;3.10;69.40
38333;DHT22;25748;46.670;14.272;2024-03-08T05:16:48;3.10;69.50
38333;DHT22;25748;46.670;14.272;2024-03-08T05:19:18;3.10;69.30
38333;DHT22;25748;46.670;14.272;2024-03-08T05:21:44;3.10;69.30
38333;DHT22;25748;46.670;14.272;2024-03-08T05:24:10;3.10;69.40
38333;DHT22;25748;46.670;14.272;2024-03-08T05:26:36;3.10;69.40
38333;DHT22;25748;46.670;14.272;2024-03-08T05:29:03;3.10;69.50
38333;DHT22;25748;46.670;14.272;2024-03-08T05:31:30;3.10;69.40
38333;DHT22;25748;46.670;14.272;2024-03-08T05:33:56;3.10;69.40
38333;DHT22;25748;46.670;14.272;2024-03-08T05:36:22;3.10;69.30
38333;DHT22;25748;46.670;14.272;2024-03-08T05:38:47;3.10;69.30
38333;DHT22;25748;46.670;14.272;2024-03-08T05:41:16;3.00;69.20
38333;DHT22;25748;46.670;14.272;2024-03-08T05:43:41;3.10;69.40
38333;DHT22;25748;46.670;14.272;2024-03-08T05:46:07;3.00;69.30
38333;DHT22;25748;46.670;14.272;2024-03-08T05:48:33;3.00;69.50
38333;DHT22;25748;46.670;14.272;2024-03-08T05:51:00;3.10;69.70
38333;DHT22;25748;46.670;14.272;2024-03-08T05:53:27;3.00;69.60
38333;DHT22;25748;46.670;14.272;2024-03-08T05:55:53;3.00;69.60
38333;DHT22;25748;46.670;14.272;2024-03-08T05:58:19;3.00;69.60
38333;DHT22;25748;46.670;14.272;2024-03-08T06:00:45;3.00;69.70
38333;DHT22;25748;46.670;14.272;2024-03-08T06:03:11;3.00;69.90
38333;DHT22;25748;46.670;14.272;2024-03-08T06:05:37;3.10;70.20
38333;DHT22;25748;46.670;14.272;2024-03-08T06:08:03;3.10;70.30
38333;DHT22;25748;46.670;14.272;2024-03-08T06:10:30;3.10;70.30
38333;DHT22;25748;46.670;14.272;2024-03-08T06:12:55;3.00;70.20
38333;DHT22;25748;46.670;14.272;2024-03-08T06:15:21;3.00;70.70
38333;DHT22;25748;46.670;14.272;2024-03-08T06:17:46;3.10;70.50
38333;DHT22;25748;46.670;14.272;2024-03-08T06:20:13;3.10;70.60
38333;DHT22;25748;46.670;14.272;2024-03-08T06:22:41;3.10;70.70
38333;DHT22;25748;46.670;14.272;2024-03-08T06:25:08;3.10;70.70
38333;DHT22;25748;46.670;14.272;2024-03-08T06:27:34;3.20;70.90
38333;DHT22;25748;46.670;14.272;2024-03-08T06:30:03;3.20;70.90
38333;DHT22;25748;46.670;14.272;2024-03-08T06:32:30;3.20;71.00
38333;DHT22;25748;46.670;14.272;2024-03-08T06:34:56;3.20;71.00
38333;DHT22;25748;46.670;14.272;2024-03-08T06:37:21;3.20;71.00
38333;DHT22;25748;46.670;14.272;2024-03-08T06:39:50;3.20;71.00
38333;DHT22;25748;46.670;14.272;2024-03-08T06:42:20;3.30;70.90
38333;DHT22;25748;46.670;14.272;2024-03-08T06:44:46;3.30;70.90
38333;DHT22;25748;46.670;14.272;2024-03-08T06:47:17;3.30;70.70
38333;DHT22;25748;46.670;14.272;2024-03-08T06:49:43;3.30;70.70
38333;DHT22;25748;46.670;14.272;2024-03-08T06:52:10;3.30;70.60
38333;DHT22;25748;46.670;14.272;2024-03-08T06:54:36;3.30;70.80
38333;DHT22;25748;46.670;14.272;2024-03-08T06:57:03;3.30;70.70
38333;DHT22;25748;46.670;14.272;2024-03-08T06:59:31;3.30;70.80
38333;DHT22;25748;46.670;14.272;2024-03-08T07:01:57;3.30;70.50
38333;DHT22;25748;46.670;14.272;2024-03-08T07:04:25;3.40;70.70
38333;DHT22;25748;46.670;14.272;2024-03-08T07:06:57;3.40;70.90
38333;DHT22;25748;46.670;14.272;2024-03-08T07:09:26;3.40;71.00
38333;DHT22;25748;46.670;14.272;2024-03-08T07:11:51;3.40;70.80
38333;DHT22;25748;46.670;14.272;2024-03-08T07:14:22;3.40;70.70
38333;DHT22;25748;46.670;14.272;2024-03-08T07:16:48;3.50;70.70
38333;DHT22;25748;46.670;14.272;2024-03-08T07:19:14;3.50;70.70
38333;DHT22;25748;46.670;14.272;2024-03-08T07:21:41;3.50;70.50
38333;DHT22;25748;46.670;14.272;2024-03-08T07:24:07;3.50;70.20
38333;DHT22;25748;46.670;14.272;2024-03-08T07:26:51;3.50;70.10
38333;DHT22;25748;46.670;14.272;2024-03-08T07:29:17;3.60;70.10
38333;DHT22;25748;46.670;14.272;2024-03-08T07:31:43;3.60;70.20
38333;DHT22;25748;46.670;14.272;2024-03-08T07:34:27;3.60;70.20
38333;DHT22;25748;46.670;14.272;2024-03-08T07:36:53;3.70;70.10
38333;DHT22;25748;46.670;14.272;2024-03-08T07:39:18;3.70;69.80
38333;DHT22;25748;46.670;14.272;2024-03-08T07:41:44;3.70;69.60
38333;DHT22;25748;46.670;14.272;2024-03-08T07:44:10;3.70;69.80
38333;DHT22;25748;46.670;14.272;2024-03-08T07:46:35;3.70;69.50
38333;DHT22;25748;46.670;14.272;2024-03-08T07:49:02;3.70;69.40
38333;DHT22;25748;46.670;14.272;2024-03-08T07:51:28;3.70;69.40
38333;DHT22;25748;46.670;14.272;2024-03-08T07:53:54;3.80;69.50
38333;DHT22;25748;46.670;14.272;2024-03-08T07:56:20;3.80;69.20
38333;DHT22;25748;46.670;14.272;2024-03-08T07:58:47;3.80;69.10
38333;DHT22;25748;46.670;14.272;2024-03-08T08:01:17;3.80;68.90
38333;DHT22;25748;46.670;14.272;2024-03-08T08:03:43;3.80;69.00
38333;DHT22;25748;46.670;14.272;2024-03-08T08:06:09;3.80;69.00
38333;DHT22;25748;46.670;14.272;2024-03-08T08:08:35;3.80;69.10
38333;DHT22;25748;46.670;14.272;2024-03-08T08:11:02;3.90;69.20
38333;DHT22;25748;46.670;14.272;2024-03-08T08:13:28;3.90;69.10
38333;DHT22;25748;46.670;14.272;2024-03-08T08:15:57;3.90;69.10
38333;DHT22;25748;46.670;14.272;2024-03-08T08:18:23;4.00;69.20
38333;DHT22;25748;46.670;14.272;2024-03-08T08:20:51;4.00;69.00
38333;DHT22;25748;46.670;14.272;2024-03-08T08:23:18;4.00;68.20
38333;DHT22;25748;46.670;14.272;2024-03-08T08:25:45;4.10;68.40
38333;DHT22;25748;46.670;14.272;2024-03-08T08:28:11;4.10;68.00
38333;DHT22;25748;46.670;14.272;2024-03-08T08:30:38;4.20;68.40
38333;DHT22;25748;46.670;14.272;2024-03-08T08:33:04;4.20;68.10
38333;DHT22;25748;46.670;14.272;2024-03-08T08:35:31;4.30;67.90
38333;DHT22;25748;46.670;14.272;2024-03-08T08:37:58;4.30;68.20
38333;DHT22;25748;46.670;14.272;2024-03-08T08:40:24;4.30;67.50
38333;DHT22;25748;46.670;14.272;2024-03-08T08:42:51;4.30;67.60
38333;DHT22;25748;46.670;14.272;2024-03-08T08:45:18;4.40;67.30
38333;DHT22;25748;46.670;14.272;2024-03-08T08:47:44;4.40;67.00
38333;DHT22;25748;46.670;14.272;2024-03-08T08:50:11;4.40;67.10
38333;DHT22;25748;46.670;14.272;2024-03-08T08:52:40;4.50;66.90
38333;DHT22;25748;46.670;14.272;2024-03-08T08:55:06;4.50;67.20
38333;DHT22;25748;46.670;14.272;2024-03-08T08:57:32;4.50;66.60
38333;DHT22;25748;46.670;14.272;2024-03-08T09:00:01;4.60;66.60
38333;DHT22;25748;46.670;14.272;2024-03-08T09:02:27;4.60;65.80
38333;DHT22;25748;46.670;14.272;2024-03-08T09:04:52;4.60;65.60
38333;DHT22;25748;46.670;14.272;2024-03-08T09:07:18;4.70;65.40
38333;DHT22;25748;46.670;14.272;2024-03-08T09:09:44;4.70;65.50
38333;DHT22;25748;46.670;14.272;2024-03-08T09:12:10;4.80;65.30
38333;DHT22;25748;46.670;14.272;2024-03-08T09:14:39;4.70;64.80
38333;DHT22;25748;46.670;14.272;2024-03-08T09:17:05;4.80;64.90
38333;DHT22;25748;46.670;14.272;2024-03-08T09:19:34;4.80;64.90
38333;DHT22;25748;46.670;14.272;2024-03-08T09:22:00;4.80;64.10
38333;DHT22;25748;46.670;14.272;2024-03-08T09:24:25;4.90;65.00
38333;DHT22;25748;46.670;14.272;2024-03-08T09:26:51;4.90;65.10
38333;DHT22;25748;46.670;14.272;2024-03-08T09:29:17;5.00;64.90
38333;DHT22;25748;46.670;14.272;2024-03-08T09:31:43;5.00;64.20
38333;DHT22;25748;46.670;14.272;2024-03-08T09:34:08;5.00;63.60
38333;DHT22;25748;46.670;14.272;2024-03-08T09:36:34;5.00;63.30
38333;DHT22;25748;46.670;14.272;2024-03-08T09:39:00;5.00;63.10
38333;DHT22;25748;46.670;14.272;2024-03-08T09:41:26;5.00;63.50
38333;DHT22;25748;46.670;14.272;2024-03-08T09:43:52;5.10;63.40
38333;DHT22;25748;46.670;14.272;2024-03-08T09:46:19;5.10;63.50
38333;DHT22;25748;46.670;14.272;2024-03-08T09:48:47;5.10;63.20
38333;DHT22;25748;46.670;14.272;2024-03-08T09:51:13;5.20;62.40
38333;DHT22;25748;46.670;14.272;2024-03-08T09:53:41;5.20;62.80
38333;DHT22;25748;46.670;14.272;2024-03-08T09:56:09;5.20;62.50
38333;DHT22;25748;46.670;14.272;2024-03-08T09:58:37;5.20;62.70
38333;DHT22;25748;46.670;14.272;2024-03-08T10:01:19;5.30;62.90
38333;DHT22;25748;46.670;14.272;2024-03-08T10:03:47;5.40;62.80
38333;DHT22;25748;46.670;14.272;2024-03-08T10:06:14;5.40;61.80
38333;DHT22;25748;46.670;14.272;2024-03-08T10:08:40;5.40;62.30
38333;DHT22;25748;46.670;14.272;2024-03-08T10:11:05;5.50;62.10
38333;DHT22;25748;46.670;14.272;2024-03-08T10:13:32;5.50;61.90
38333;DHT22;25748;46.670;14.272;2024-03-08T10:15:58;5.60;62.20
38333;DHT22;25748;46.670;14.272;2024-03-08T10:18:24;5.60;61.90
38333;DHT22;25748;46.670;14.272;2024-03-08T10:21:02;5.60;61.40
38333;DHT22;25748;46.670;14.272;2024-03-08T10:23:30;5.70;61.50
38333;DHT22;25748;46.670;14.272;2024-03-08T10:25:55;5.80;61.30
38333;DHT22;25748;46.670;14.272;2024-03-08T10:28:23;5.80;60.00
38333;DHT22;25748;46.670;14.272;2024-03-08T10:30:52;5.90;60.30
38333;DHT22;25748;46.670;14.272;2024-03-08T10:33:18;5.90;60.30
38333;DHT22;25748;46.670;14.272;2024-03-08T10:35:44;5.90;60.40
38333;DHT22;25748;46.670;14.272;2024-03-08T10:38:14;6.00;60.00
38333;DHT22;25748;46.670;14.272;2024-03-08T10:40:44;6.00;60.20
38333;DHT22;25748;46.670;14.272;2024-03-08T10:43:18;6.10;60.40
38333;DHT22;25748;46.670;14.272;2024-03-08T10:45:53;6.10;59.90
38333;DHT22;25748;46.670;14.272;2024-03-08T10:50:51;6.10;59.70
38333;DHT22;25748;46.670;14.272;2024-03-08T10:53:18;6.10;59.80
38333;DHT22;25748;46.670;14.272;2024-03-08T10:55:46;6.10;59.90
38333;DHT22;25748;46.670;14.272;2024-03-08T10:58:12;6.10;59.80
38333;DHT22;25748;46.670;14.272;2024-03-08T11:00:38;6.10;59.90
38333;DHT22;25748;46.670;14.272;2024-03-08T11:03:04;6.10;60.00
38333;DHT22;25748;46.670;14.272;2024-03-08T11:05:40;6.10;59.70
38333;DHT22;25748;46.670;14.272;2024-03-08T11:08:16;6.20;60.10
38333;DHT22;25748;46.670;14.272;2024-03-08T11:10:51;6.20;59.60
38333;DHT22;25748;46.670;14.272;2024-03-08T11:16:01;6.20;59.80
38333;DHT22;25748;46.670;14.272;2024-03-08T11:18:27;6.20;59.80
38333;DHT22;25748;46.670;14.272;2024-03-08T11:20:55;6.20;59.60
38333;DHT22;25748;46.670;14.272;2024-03-08T11:23:23;6.20;59.70
38333;DHT22;25748;46.670;14.272;2024-03-08T11:25:49;6.20;59.30
38333;DHT22;25748;46.670;14.272;2024-03-08T11:28:20;6.20;59.50
38333;DHT22;25748;46.670;14.272;2024-03-08T11:33:31;6.30;59.60
38333;DHT22;25748;46.670;14.272;2024-03-08T11:36:22;6.40;59.70
38333;DHT22;25748;46.670;14.272;2024-03-08T11:38:49;6.40;59.10
38333;DHT22;25748;46.670;14.272;2024-03-08T11:41:18;6.40;59.00
38333;DHT22;25748;46.670;14.272;2024-03-08T11:43:45;6.40;59.00
38333;DHT22;25748;46.670;14.272;2024-03-08T11:46:12;6.50;58.70
38333;DHT22;25748;46.670;14.272;2024-03-08T11:48:39;6.40;58.80
38333;DHT22;25748;46.670;14.272;2024-03-08T11:51:08;6.40;58.50
38333;DHT22;25748;46.670;14.272;2024-03-08T11:53:34;6.40;58.30
38333;DHT22;25748;46.670;14.272;2024-03-08T11:56:12;6.30;58.20
38333;DHT22;25748;46.670;14.272;2024-03-08T11:58:38;6.30;58.20
38333;DHT22;25748;46.670;14.272;2024-03-08T12:01:09;6.30;58.20
38333;DHT22;25748;46.670;14.272;2024-03-08T12:03:41;6.30;58.00
38333;DHT22;25748;46.670;14.272;2024-03-08T12:06:10;6.20;58.00
38333;DHT22;25748;46.670;14.272;2024-03-08T12:08:36;6.30;58.20
38333;DHT22;25748;46.670;14.272;2024-03-08T12:11:04;6.30;58.40
38333;DHT22;25748;46.670;14.272;2024-03-08T12:13:34;6.20;58.40
38333;DHT22;25748;46.670;14.272;2024-03-08T12:16:04;6.30;58.30
38333;DHT22;25748;46.670;14.272;2024-03-08T12:18:33;6.20;58.60
38333;DHT22;25748;46.670;14.272;2024-03-08T12:21:07;6.20;58.50
38333;DHT22;25748;46.670;14.272;2024-03-08T12:23:34;6.20;58.50
38333;DHT22;25748;46.670;14.272;2024-03-08T12:26:16;6.20;58.50
38333;DHT22;25748;46.670;14.272;2024-03-08T12:28:43;6.20;58.70
38333;DHT22;25748;46.670;14.272;2024-03-08T12:31:13;6.20;58.60
38333;DHT22;25748;46.670;14.272;2024-03-08T12:33:55;6.20;58.60
38333;DHT22;25748;46.670;14.272;2024-03-08T12:36:24;6.20;58.80
38333;DHT22;25748;46.670;14.272;2024-03-08T12:38:50;6.20;59.10
38333;DHT22;25748;46.670;14.272;2024-03-08T12:41:17;6.20;59.10
38333;DHT22;25748;46.670;14.272;2024-03-08T12:43:47;6.20;59.10
38333;DHT22;25748;46.670;14.272;2024-03-08T12:46:16;6.30;59.10
38333;DHT22;25748;46.670;14.272;2024-03-08T12:48:43;6.30;59.40
38333;DHT22;25748;46.670;14.272;2024-03-08T12:51:16;6.30;59.40
38333;DHT22;25748;46.670;14.272;2024-03-08T12:53:43;6.30;60.00
38333;DHT22;25748;46.670;14.272;2024-03-08T12:56:10;6.30;60.00
38333;DHT22;25748;46.670;14.272;2024-03-08T12:58:36;6.40;59.80
38333;DHT22;25748;46.670;14.272;2024-03-08T13:01:04;6.40;59.60
38333;DHT22;25748;46.670;14.272;2024-03-08T13:03:36;6.40;60.20
38333;DHT22;25748;46.670;14.272;2024-03-08T13:06:03;6.40;60.30
38333;DHT22;25748;46.670;14.272;2024-03-08T13:08:37;6.50;60.20
38333;DHT22;25748;46.670;14.272;2024-03-08T13:11:07;6.50;59.70
38333;DHT22;25748;46.670;14.272;2024-03-08T13:13:34;6.50;59.90
38333;DHT22;25748;46.670;14.272;2024-03-08T13:16:02;6.50;59.90
38333;DHT22;25748;46.670;14.272;2024-03-08T13:18:28;6.50;59.90
38333;DHT22;25748;46.670;14.272;2024-03-08T13:20:55;6.50;59.90
38333;DHT22;25748;46.670;14.272;2024-03-08T13:23:20;6.40;59.30
38333;DHT22;25748;46.670;14.272;2024-03-08T13:25:46;6.50;59.00
38333;DHT22;25748;46.670;14.272;2024-03-08T13:28:15;6.40;59.10
38333;DHT22;25748;46.670;14.272;2024-03-08T13:30:42;6.40;59.60
38333;DHT22;25748;46.670;14.272;2024-03-08T13:33:09;6.40;59.20
38333;DHT22;25748;46.670;14.272;2024-03-08T13:35:35;6.30;59.40
38333;DHT22;25748;46.670;14.272;2024-03-08T13:38:00;6.30;59.00
38333;DHT22;25748;46.670;14.272;2024-03-08T13:40:29;6.30;59.30
38333;DHT22;25748;46.670;14.272;2024-03-08T13:42:56;6.30;59.20
38333;DHT22;25748;46.670;14.272;2024-03-08T13:45:22;6.30;59.40
38333;DHT22;25748;46.670;14.272;2024-03-08T13:47:50;6.30;59.50
38333;DHT22;25748;46.670;14.272;2024-03-08T13:50:19;6.40;59.50
38333;DHT22;25748;46.670;14.272;2024-03-08T13:52:49;6.30;59.20
38333;DHT22;25748;46.670;14.272;2024-03-08T13:55:20;6.30;59.20
38333;DHT22;25748;46.670;14.272;2024-03-08T13:57:48;6.30;59.20
38333;DHT22;25748;46.670;14.272;2024-03-08T14:00:14;6.30;59.60
38333;DHT22;25748;46.670;14.272;2024-03-08T14:02:40;6.30;59.80
38333;DHT22;25748;46.670;14.272;2024-03-08T14:05:07;6.30;59.80
38333;DHT22;25748;46.670;14.272;2024-03-08T14:07:35;6.30;59.90
38333;DHT22;25748;46.670;14.272;2024-03-08T14:10:00;6.30;59.90
38333;DHT22;25748;46.670;14.272;2024-03-08T14:12:26;6.30;59.80
38333;DHT22;25748;46.670;14.272;2024-03-08T14:14:56;6.30;59.60
38333;DHT22;25748;46.670;14.272;2024-03-08T14:17:25;6.20;59.50
38333;DHT22;25748;46.670;14.272;2024-03-08T14:19:52;6.20;59.40
38333;DHT22;25748;46.670;14.272;2024-03-08T14:22:18;6.10;59.40
38333;DHT22;25748;46.670;14.272;2024-03-08T14:24:44;6.10;59.70
38333;DHT22;25748;46.670;14.272;2024-03-08T14:27:10;6.00;59.70
38333;DHT22;25748;46.670;14.272;2024-03-08T14:29:37;6.00;59.60
38333;DHT22;25748;46.670;14.272;2024-03-08T14:32:04;5.90;59.60
38333;DHT22;25748;46.670;14.272;2024-03-08T14:34:32;5.90;59.90
38333;DHT22;25748;46.670;14.272;2024-03-08T14:36:59;5.90;60.00
38333;DHT22;25748;46.670;14.272;2024-03-08T14:39:25;5.90;59.80
38333;DHT22;25748;46.670;14.272;2024-03-08T14:41:55;5.90;59.90
38333;DHT22;25748;46.670;14.272;2024-03-08T14:44:22;5.90;60.30
38333;DHT22;25748;46.670;14.272;2024-03-08T14:46:55;5.90;60.50
38333;DHT22;25748;46.670;14.272;2024-03-08T14:49:22;5.90;60.80
38333;DHT22;25748;46.670;14.272;2024-03-08T14:51:48;5.80;60.50
38333;DHT22;25748;46.670;14.272;2024-03-08T14:54:13;5.80;60.80
38333;DHT22;25748;46.670;14.272;2024-03-08T14:56:39;5.80;61.00
38333;DHT22;25748;46.670;14.272;2024-03-08T14:59:08;5.80;61.00
38333;DHT22;25748;46.670;14.272;2024-03-08T15:01:37;5.80;61.60
38333;DHT22;25748;46.670;14.272;2024-03-08T15:04:03;5.80;61.90
38333;DHT22;25748;46.670;14.272;2024-03-08T15:06:43;5.80;62.00
38333;DHT22;25748;46.670;14.272;2024-03-08T15:09:09;5.80;62.10
38333;DHT22;25748;46.670;14.272;2024-03-08T15:11:45;5.90;62.50
38333;DHT22;25748;46.670;14.272;2024-03-08T15:14:11;5.80;62.40
38333;DHT22;25748;46.670;14.272;2024-03-08T15:16:40;5.80;62.70
38333;DHT22;25748;46.670;14.272;2024-03-08T15:19:08;5.80;62.70
38333;DHT22;25748;46.670;14.272;2024-03-08T15:21:33;5.90;63.00
38333;DHT22;25748;46.670;14.272;2024-03-08T15:24:00;5.90;63.10
38333;DHT22;25748;46.670;14.272;2024-03-08T15:26:28;5.80;63.10
38333;DHT22;25748;46.670;14.272;2024-03-08T15:28:57;5.80;63.20
38333;DHT22;25748;46.670;14.272;2024-03-08T15:31:23;5.80;63.10
38333;DHT22;25748;46.670;14.272;2024-03-08T15:33:50;5.80;63.00
38333;DHT22;25748;46.670;14.272;2024-03-08T15:36:27;5.80;63.10
38333;DHT22;25748;46.670;14.272;2024-03-08T15:38:56;5.80;63.20